sensor_id;sensor_type;location;lat;lon;timestamp;temperature;humidity
41168;DHT22;26906;45.658;9.272;2022-07-23T04:32:05;29.50;90.40
41168;DHT22;26906;45.658;9.272;2022-07-23T04:34:30;29.50;90.20
41168;DHT22;26906;45.658;9.272;2022-07-23T04:36:58;29.60;90.20
41168;DHT22;26906;45.658;9.272;2022-07-23T04:39:24;29.50;90.40
41168;DHT22;26906;45.658;9.272;2022-07-23T04:41:50;29.50;90.80
41168;DHT22;26906;45.658;9.272;2022-07-23T04:44:16;29.40;91.30
41168;DHT22;26906;45.658;9.272;2022-07-23T04:46:42;29.40;91.40
41168;DHT22;26906;45.658;9.272;2022-07-23T04:49:08;29.50;91.20
41168;DHT22;26906;45.658;9.272;2022-07-23T04:51:34;29.70;90.60
41168;DHT22;26906;45.658;9.272;2022-07-23T04:53:59;29.80;90.60
41168;DHT22;26906;45.658;9.272;2022-07-23T04:56:26;29.70;90.50
41168;DHT22;26906;45.658;9.272;2022-07-23T04:58:52;29.70;90.90
41168;DHT22;26906;45.658;9.272;2022-07-23T05:01:18;29.80;91.40
41168;DHT22;26906;45.658;9.272;2022-07-23T05:03:45;29.90;91.70
41168;DHT22;26906;45.658;9.272;2022-07-23T05:06:11;30.10;91.60
41168;DHT22;26906;45.658;9.272;2022-07-23T05:08:36;30.30;90.60
41168;DHT22;26906;45.658;9.272;2022-07-23T05:11:05;30.50;90.20
41168;DHT22;26906;45.658;9.272;2022-07-23T05:13:31;30.60;90.00
41168;DHT22;26906;45.658;9.272;2022-07-23T05:15:57;30.70;90.00
41168;DHT22;26906;45.658;9.272;2022-07-23T05:18:24;30.80;89.50
41168;DHT22;26906;45.658;9.272;2022-07-23T05:20:50;30.60;89.80
41168;DHT22;26906;45.658;9.272;2022-07-23T05:23:19;30.50;90.10
41168;DHT22;26906;45.658;9.272;2022-07-23T05:25:45;30.50;90.20
41168;DHT22;26906;45.658;9.272;2022-07-23T05:28:11;30.70;90.00
41168;DHT22;26906;45.658;9.272;2022-07-23T05:30:37;30.80;89.90
41168;DHT22;26906;45.658;9.272;2022-07-23T05:33:06;30.80;89.80
41168;DHT22;26906;45.658;9.272;2022-07-23T05:35:33;30.90;90.00
41168;DHT22;26906;45.658;9.272;2022-07-23T05:38:14;30.90;90.00
41168;DHT22;26906;45.658;9.272;2022-07-23T05:40:40;30.70;90.20
41168;DHT22;26906;45.658;9.272;2022-07-23T05:43:06;30.70;90.10
41168;DHT22;26906;45.658;9.272;2022-07-23T05:45:32;30.50;90.20
41168;DHT22;26906;45.658;9.272;2022-07-23T05:47:57;30.50;90.00
41168;DHT22;26906;45.658;9.272;2022-07-23T05:50:32;30.70;90.00
41168;DHT22;26906;45.658;9.272;2022-07-23T05:53:18;30.70;90.00
41168;DHT22;26906;45.658;9.272;2022-07-23T05:55:57;30.80;89.90
41168;DHT22;26906;45.658;9.272;2022-07-23T05:58:23;31.10;89.80
41168;DHT22;26906;45.658;9.272;2022-07-23T06:00:48;31.10;89.30
41168;DHT22;26906;45.658;9.272;2022-07-23T06:03:14;31.20;89.20
41168;DHT22;26906;45.658;9.272;2022-07-23T06:05:40;31.20;88.90
41168;DHT22;26906;45.658;9.272;2022-07-23T06:08:09;31.20;89.20
41168;DHT22;26906;45.658;9.272;2022-07-23T06:10:34;31.10;89.00
41168;DHT22;26906;45.658;9.272;2022-07-23T06:13:00;31.10;89.40
41168;DHT22;26906;45.658;9.272;2022-07-23T06:15:28;31.10;89.70
41168;DHT22;26906;45.658;9.272;2022-07-23T06:17:54;31.10;89.10
41168;DHT22;26906;45.658;9.272;2022-07-23T06:20:19;31.10;88.90
41168;DHT22;26906;45.658;9.272;2022-07-23T06:22:45;31.10;88.80
41168;DHT22;26906;45.658;9.272;2022-07-23T06:25:11;31.10;88.60
41168;DHT22;26906;45.658;9.272;2022-07-23T06:27:37;31.10;88.90
41168;DHT22;26906;45.658;9.272;2022-07-23T06:30:03;31.30;88.80
41168;DHT22;26906;45.658;9.272;2022-07-23T06:32:30;31.40;88.40
41168;DHT22;26906;45.658;9.272;2022-07-23T06:34:58;31.50;87.80
41168;DHT22;26906;45.658;9.272;2022-07-23T06:37:24;31.60;87.40
41168;DHT22;26906;45.658;9.272;2022-07-23T06:39:50;31.90;87.30
41168;DHT22;26906;45.658;9.272;2022-07-23T06:42:15;32.20;87.10
41168;DHT22;26906;45.658;9.272;2022-07-23T06:44:46;32.40;86.30
41168;DHT22;26906;45.658;9.272;2022-07-23T06:47:15;32.80;85.60
41168;DHT22;26906;45.658;9.272;2022-07-23T06:49:41;33.10;85.20
41168;DHT22;26906;45.658;9.272;2022-07-23T06:52:07;33.30;84.20
41168;DHT22;26906;45.658;9.272;2022-07-23T06:54:33;33.60;83.70
41168;DHT22;26906;45.658;9.272;2022-07-23T06:56:59;33.90;83.00
41168;DHT22;26906;45.658;9.272;2022-07-23T06:59:26;34.10;82.60
41168;DHT22;26906;45.658;9.272;2022-07-23T07:01:52;34.20;81.90
41168;DHT22;26906;45.658;9.272;2022-07-23T07:04:18;34.20;81.60
41168;DHT22;26906;45.658;9.272;2022-07-23T07:06:43;34.40;81.50
41168;DHT22;26906;45.658;9.272;2022-07-23T07:09:09;34.50;80.00
41168;DHT22;26906;45.658;9.272;2022-07-23T07:11:35;34.60;80.60
41168;DHT22;26906;45.658;9.272;2022-07-23T07:14:01;34.90;80.00
41168;DHT22;26906;45.658;9.272;2022-07-23T07:16:27;35.10;80.00
41168;DHT22;26906;45.658;9.272;2022-07-23T07:18:52;35.10;80.00
41168;DHT22;26906;45.658;9.272;2022-07-23T07:21:18;35.30;79.80
41168;DHT22;26906;45.658;9.272;2022-07-23T07:23:47;35.40;79.20
41168;DHT22;26906;45.658;9.272;2022-07-23T07:26:12;35.50;77.50
41168;DHT22;26906;45.658;9.272;2022-07-23T07:28:38;35.60;77.80
41168;DHT22;26906;45.658;9.272;2022-07-23T07:31:04;35.80;77.80
41168;DHT22;26906;45.658;9.272;2022-07-23T07:33:30;36.10;77.10
41168;DHT22;26906;45.658;9.272;2022-07-23T07:35:56;36.10;76.70
41168;DHT22;26906;45.658;9.272;2022-07-23T07:38:21;36.20;76.60
41168;DHT22;26906;45.658;9.272;2022-07-23T07:40:47;36.40;76.70
41168;DHT22;26906;45.658;9.272;2022-07-23T07:43:13;36.50;76.10
41168;DHT22;26906;45.658;9.272;2022-07-23T07:45:39;36.60;77.00
41168;DHT22;26906;45.658;9.272;2022-07-23T07:48:05;36.80;77.10
41168;DHT22;26906;45.658;9.272;2022-07-23T07:50:30;36.70;76.40
41168;DHT22;26906;45.658;9.272;2022-07-23T07:52:56;36.50;76.20
41168;DHT22;26906;45.658;9.272;2022-07-23T07:55:22;36.40;76.50
41168;DHT22;26906;45.658;9.272;2022-07-23T07:57:47;36.60;77.20
41168;DHT22;26906;45.658;9.272;2022-07-23T08:00:13;36.50;77.20
41168;DHT22;26906;45.658;9.272;2022-07-23T08:02:50;36.30;77.70
41168;DHT22;26906;45.658;9.272;2022-07-23T08:05:24;36.30;77.30
41168;DHT22;26906;45.658;9.272;2022-07-23T08:07:50;36.20;77.50
41168;DHT22;26906;45.658;9.272;2022-07-23T08:10:16;36.30;77.90
41168;DHT22;26906;45.658;9.272;2022-07-23T08:12:46;36.00;77.60
41168;DHT22;26906;45.658;9.272;2022-07-23T08:15:19;36.40;78.70
41168;DHT22;26906;45.658;9.272;2022-07-23T08:17:45;36.80;77.10
41168;DHT22;26906;45.658;9.272;2022-07-23T08:20:12;37.10;76.40
41168;DHT22;26906;45.658;9.272;2022-07-23T08:22:50;37.20;77.30
41168;DHT22;26906;45.658;9.272;2022-07-23T08:27:48;37.70;77.80
41168;DHT22;26906;45.658;9.272;2022-07-23T08:30:14;37.90;76.20
41168;DHT22;26906;45.658;9.272;2022-07-23T08:33:01;37.90;76.50
41168;DHT22;26906;45.658;9.272;2022-07-23T08:35:35;37.90;75.10
41168;DHT22;26906;45.658;9.272;2022-07-23T08:38:16;38.00;75.80
41168;DHT22;26906;45.658;9.272;2022-07-23T08:40:47;38.30;75.70
41168;DHT22;26906;45.658;9.272;2022-07-23T08:43:36;37.90;76.10
41168;DHT22;26906;45.658;9.272;2022-07-23T08:46:02;38.10;76.30
41168;DHT22;26906;45.658;9.272;2022-07-23T08:48:33;38.40;75.10
41168;DHT22;26906;45.658;9.272;2022-07-23T08:51:01;38.30;74.50
41168;DHT22;26906;45.658;9.272;2022-07-23T08:53:28;38.10;74.60
41168;DHT22;26906;45.658;9.272;2022-07-23T08:55:57;38.00;75.30
41168;DHT22;26906;45.658;9.272;2022-07-23T08:58:24;38.10;74.90
41168;DHT22;26906;45.658;9.272;2022-07-23T09:00:50;37.80;75.70
41168;DHT22;26906;45.658;9.272;2022-07-23T09:03:18;37.90;75.30
41168;DHT22;26906;45.658;9.272;2022-07-23T09:05:45;37.90;75.90
41168;DHT22;26906;45.658;9.272;2022-07-23T09:10:51;37.70;75.30
41168;DHT22;26906;45.658;9.272;2022-07-23T09:13:28;37.80;75.90
41168;DHT22;26906;45.658;9.272;2022-07-23T09:15:57;38.40;75.70
41168;DHT22;26906;45.658;9.272;2022-07-23T09:18:31;38.50;74.10
41168;DHT22;26906;45.658;9.272;2022-07-23T09:23:58;38.90;74.90
41168;DHT22;26906;45.658;9.272;2022-07-23T09:26:26;39.10;74.50
41168;DHT22;26906;45.658;9.272;2022-07-23T09:31:59;38.30;75.50
41168;DHT22;26906;45.658;9.272;2022-07-23T09:38:16;37.30;76.60
41168;DHT22;26906;45.658;9.272;2022-07-23T09:40:42;37.10;76.60
41168;DHT22;26906;45.658;9.272;2022-07-23T09:43:08;37.00;77.00
41168;DHT22;26906;45.658;9.272;2022-07-23T09:45:34;36.90;77.20
41168;DHT22;26906;45.658;9.272;2022-07-23T09:48:15;36.80;77.80
41168;DHT22;26906;45.658;9.272;2022-07-23T09:50:44;36.80;77.30
41168;DHT22;26906;45.658;9.272;2022-07-23T09:53:25;37.20;77.30
41168;DHT22;26906;45.658;9.272;2022-07-23T09:55:54;37.50;76.90
41168;DHT22;26906;45.658;9.272;2022-07-23T09:58:24;38.10;76.80
41168;DHT22;26906;45.658;9.272;2022-07-23T10:00:52;38.50;76.20
41168;DHT22;26906;45.658;9.272;2022-07-23T10:03:19;38.60;75.60
41168;DHT22;26906;45.658;9.272;2022-07-23T10:06:04;38.40;74.90
41168;DHT22;26906;45.658;9.272;2022-07-23T10:08:50;38.00;75.50
41168;DHT22;26906;45.658;9.272;2022-07-23T10:11:35;37.80;76.50
41168;DHT22;26906;45.658;9.272;2022-07-23T10:14:11;37.90;76.10
41168;DHT22;26906;45.658;9.272;2022-07-23T10:16:54;38.20;76.40
41168;DHT22;26906;45.658;9.272;2022-07-23T10:19:21;38.30;75.90
41168;DHT22;26906;45.658;9.272;2022-07-23T10:21:59;38.50;75.90
41168;DHT22;26906;45.658;9.272;2022-07-23T10:24:53;38.40;75.10
41168;DHT22;26906;45.658;9.272;2022-07-23T10:27:51;38.00;76.90
41168;DHT22;26906;45.658;9.272;2022-07-23T10:36:22;37.80;77.90
41168;DHT22;26906;45.658;9.272;2022-07-23T10:39:04;38.20;77.60
41168;DHT22;26906;45.658;9.272;2022-07-23T10:41:36;38.90;77.10
41168;DHT22;26906;45.658;9.272;2022-07-23T10:49:37;39.00;76.30
41168;DHT22;26906;45.658;9.272;2022-07-23T10:52:17;39.00;76.40
41168;DHT22;26906;45.658;9.272;2022-07-23T10:54:54;38.70;76.90
41168;DHT22;26906;45.658;9.272;2022-07-23T10:57:22;38.90;76.70
41168;DHT22;26906;45.658;9.272;2022-07-23T11:02:30;38.60;76.10
41168;DHT22;26906;45.658;9.272;2022-07-23T11:05:09;38.70;76.40
41168;DHT22;26906;45.658;9.272;2022-07-23T11:07:36;38.70;76.70
41168;DHT22;26906;45.658;9.272;2022-07-23T11:10:03;38.40;77.70
41168;DHT22;26906;45.658;9.272;2022-07-23T11:15:05;37.60;78.60
41168;DHT22;26906;45.658;9.272;2022-07-23T11:20:19;37.70;78.50
41168;DHT22;26906;45.658;9.272;2022-07-23T11:25:32;38.40;78.00
41168;DHT22;26906;45.658;9.272;2022-07-23T11:28:16;38.90;78.20
41168;DHT22;26906;45.658;9.272;2022-07-23T11:30:44;39.30;77.10
41168;DHT22;26906;45.658;9.272;2022-07-23T11:33:17;39.50;77.30
41168;DHT22;26906;45.658;9.272;2022-07-23T11:35:48;39.70;77.40
41168;DHT22;26906;45.658;9.272;2022-07-23T11:38:19;39.60;76.90
41168;DHT22;26906;45.658;9.272;2022-07-23T11:40:51;39.50;77.10
41168;DHT22;26906;45.658;9.272;2022-07-23T11:43:18;39.20;77.10
41168;DHT22;26906;45.658;9.272;2022-07-23T11:45:50;39.00;77.90
41168;DHT22;26906;45.658;9.272;2022-07-23T11:50:46;39.40;78.10
41168;DHT22;26906;45.658;9.272;2022-07-23T11:53:12;39.70;78.30
41168;DHT22;26906;45.658;9.272;2022-07-23T11:55:38;39.80;76.70
41168;DHT22;26906;45.658;9.272;2022-07-23T11:58:05;40.20;77.40
41168;DHT22;26906;45.658;9.272;2022-07-23T12:00:31;40.10;75.90
41168;DHT22;26906;45.658;9.272;2022-07-23T12:03:00;39.90;76.40
41168;DHT22;26906;45.658;9.272;2022-07-23T12:05:33;40.00;76.60
41168;DHT22;26906;45.658;9.272;2022-07-23T12:08:01;40.20;77.10
41168;DHT22;26906;45.658;9.272;2022-07-23T12:10:43;40.10;77.90
41168;DHT22;26906;45.658;9.272;2022-07-23T12:13:11;40.00;77.60
41168;DHT22;26906;45.658;9.272;2022-07-23T12:15:43;39.80;77.70
41168;DHT22;26906;45.658;9.272;2022-07-23T12:18:11;39.90;77.90
41168;DHT22;26906;45.658;9.272;2022-07-23T12:20:48;39.80;77.60
41168;DHT22;26906;45.658;9.272;2022-07-23T12:23:18;39.50;77.80
41168;DHT22;26906;45.658;9.272;2022-07-23T12:25:46;39.60;78.30
41168;DHT22;26906;45.658;9.272;2022-07-23T12:28:15;39.60;76.90
41168;DHT22;26906;45.658;9.272;2022-07-23T12:33:13;39.80;77.90
41168;DHT22;26906;45.658;9.272;2022-07-23T12:35:41;40.00;78.50
41168;DHT22;26906;45.658;9.272;2022-07-23T12:38:10;40.00;77.80
41168;DHT22;26906;45.658;9.272;2022-07-23T12:40:47;40.20;77.50
41168;DHT22;26906;45.658;9.272;2022-07-23T12:48:28;40.30;78.70
41168;DHT22;26906;45.658;9.272;2022-07-23T12:51:00;40.00;78.70
41168;DHT22;26906;45.658;9.272;2022-07-23T12:53:53;39.90;78.70
41168;DHT22;26906;45.658;9.272;2022-07-23T12:56:30;40.20;79.00
41168;DHT22;26906;45.658;9.272;2022-07-23T12:59:06;40.30;78.60
41168;DHT22;26906;45.658;9.272;2022-07-23T13:01:36;40.10;78.50
41168;DHT22;26906;45.658;9.272;2022-07-23T13:06:35;39.10;78.80
41168;DHT22;26906;45.658;9.272;2022-07-23T13:09:02;39.20;79.40
41168;DHT22;26906;45.658;9.272;2022-07-23T13:11:28;38.90;79.10
41168;DHT22;26906;45.658;9.272;2022-07-23T13:13:54;38.70;79.10
41168;DHT22;26906;45.658;9.272;2022-07-23T13:16:22;38.90;79.40
41168;DHT22;26906;45.658;9.272;2022-07-23T13:18:48;39.30;79.50
41168;DHT22;26906;45.658;9.272;2022-07-23T13:21:17;39.80;79.10
41168;DHT22;26906;45.658;9.272;2022-07-23T13:23:42;40.00;78.90
41168;DHT22;26906;45.658;9.272;2022-07-23T13:26:08;40.10;77.40
41168;DHT22;26906;45.658;9.272;2022-07-23T13:28:34;40.10;77.40
41168;DHT22;26906;45.658;9.272;2022-07-23T13:30:59;40.00;78.10
41168;DHT22;26906;45.658;9.272;2022-07-23T13:33:25;40.40;77.90
41168;DHT22;26906;45.658;9.272;2022-07-23T13:35:52;40.50;77.80
41168;DHT22;26906;45.658;9.272;2022-07-23T13:38:20;40.40;77.80
41168;DHT22;26906;45.658;9.272;2022-07-23T13:40:48;40.20;77.80
41168;DHT22;26906;45.658;9.272;2022-07-23T13:43:17;40.10;78.20
41168;DHT22;26906;45.658;9.272;2022-07-23T13:45:44;40.10;77.90
41168;DHT22;26906;45.658;9.272;2022-07-23T13:48:11;40.30;77.70
41168;DHT22;26906;45.658;9.272;2022-07-23T13:50:44;40.60;77.60
41168;DHT22;26906;45.658;9.272;2022-07-23T13:53:12;40.70;77.70
41168;DHT22;26906;45.658;9.272;2022-07-23T13:55:40;41.10;78.70
41168;DHT22;26906;45.658;9.272;2022-07-23T13:58:07;41.20;78.50
41168;DHT22;26906;45.658;9.272;2022-07-23T14:00:39;41.40;78.00
41168;DHT22;26906;45.658;9.272;2022-07-23T14:03:05;41.50;77.90
41168;DHT22;26906;45.658;9.272;2022-07-23T14:05:31;41.60;77.70
41168;DHT22;26906;45.658;9.272;2022-07-23T14:07:57;41.70;78.00
41168;DHT22;26906;45.658;9.272;2022-07-23T14:10:23;41.70;77.70
41168;DHT22;26906;45.658;9.272;2022-07-23T14:12:51;41.60;77.90
41168;DHT22;26906;45.658;9.272;2022-07-23T14:15:18;41.40;78.30
41168;DHT22;26906;45.658;9.272;2022-07-23T14:17:45;40.80;78.40
41168;DHT22;26906;45.658;9.272;2022-07-23T14:20:12;40.70;78.50
41168;DHT22;26906;45.658;9.272;2022-07-23T14:22:38;40.90;78.40
41168;DHT22;26906;45.658;9.272;2022-07-23T14:25:05;40.70;78.50
41168;DHT22;26906;45.658;9.272;2022-07-23T14:27:32;40.70;78.30
41168;DHT22;26906;45.658;9.272;2022-07-23T14:29:58;40.80;78.20
41168;DHT22;26906;45.658;9.272;2022-07-23T14:32:24;40.90;78.40
41168;DHT22;26906;45.658;9.272;2022-07-23T14:34:50;40.90;78.10
41168;DHT22;26906;45.658;9.272;2022-07-23T14:37:17;40.70;78.30
41168;DHT22;26906;45.658;9.272;2022-07-23T14:39:44;40.20;78.90
41168;DHT22;26906;45.658;9.272;2022-07-23T14:42:10;39.70;79.00
41168;DHT22;26906;45.658;9.272;2022-07-23T14:44:36;39.50;79.70
41168;DHT22;26906;45.658;9.272;2022-07-23T14:47:03;39.40;79.90
41168;DHT22;26906;45.658;9.272;2022-07-23T14:49:30;39.20;80.40
41168;DHT22;26906;45.658;9.272;2022-07-23T14:51:56;39.10;80.20
41168;DHT22;26906;45.658;9.272;2022-07-23T14:54:22;39.00;80.40
41168;DHT22;26906;45.658;9.272;2022-07-23T14:56:49;39.50;80.30
41168;DHT22;26906;45.658;9.272;2022-07-23T14:59:14;39.40;79.70
41168;DHT22;26906;45.658;9.272;2022-07-23T15:01:41;39.40;80.30
41168;DHT22;26906;45.658;9.272;2022-07-23T15:04:07;39.10;80.40
41168;DHT22;26906;45.658;9.272;2022-07-23T15:06:33;39.30;80.60
41168;DHT22;26906;45.658;9.272;2022-07-23T15:08:59;39.20;81.00
41168;DHT22;26906;45.658;9.272;2022-07-23T15:11:27;39.00;81.50
41168;DHT22;26906;45.658;9.272;2022-07-23T15:13:55;39.10;81.60
41168;DHT22;26906;45.658;9.272;2022-07-23T15:16:20;39.30;81.30
41168;DHT22;26906;45.658;9.272;2022-07-23T15:18:46;39.50;80.80
41168;DHT22;26906;45.658;9.272;2022-07-23T15:21:12;39.60;80.60
41168;DHT22;26906;45.658;9.272;2022-07-23T15:23:38;39.40;80.30
41168;DHT22;26906;45.658;9.272;2022-07-23T15:26:05;39.50;81.10
41168;DHT22;26906;45.658;9.272;2022-07-23T15:28:31;39.50;81.30
41168;DHT22;26906;45.658;9.272;2022-07-23T15:30:57;39.40;80.90
41168;DHT22;26906;45.658;9.272;2022-07-23T15:33:23;39.10;81.80
41168;DHT22;26906;45.658;9.272;2022-07-23T15:35:49;39.20;81.80
41168;DHT22;26906;45.658;9.272;2022-07-23T15:38:15;39.40;81.20
41168;DHT22;26906;45.658;9.272;2022-07-23T15:40:41;39.40;80.60
41168;DHT22;26906;45.658;9.272;2022-07-23T15:43:06;39.50;80.60
41168;DHT22;26906;45.658;9.272;2022-07-23T15:45:32;39.30;80.10
41168;DHT22;26906;45.658;9.272;2022-07-23T15:47:58;39.10;80.60
41168;DHT22;26906;45.658;9.272;2022-07-23T15:50:24;39.10;81.10
41168;DHT22;26906;45.658;9.272;2022-07-23T15:52:50;38.80;80.70
41168;DHT22;26906;45.658;9.272;2022-07-23T15:55:18;38.60;80.80
41168;DHT22;26906;45.658;9.272;2022-07-23T15:57:44;38.40;81.50
41168;DHT22;26906;45.658;9.272;2022-07-23T16:00:11;38.40;82.40
41168;DHT22;26906;45.658;9.272;2022-07-23T16:02:36;38.50;82.00
41168;DHT22;26906;45.658;9.272;2022-07-23T16:05:02;38.40;81.90
41168;DHT22;26906;45.658;9.272;2022-07-23T16:07:47;38.20;82.10
41168;DHT22;26906;45.658;9.272;2022-07-23T16:10:12;38.30;82.40
41168;DHT22;26906;45.658;9.272;2022-07-23T16:12:38;38.20;82.20
41168;DHT22;26906;45.658;9.272;2022-07-23T16:15:05;38.10;82.40
41168;DHT22;26906;45.658;9.272;2022-07-23T16:17:31;38.00;82.60
41168;DHT22;26906;45.658;9.272;2022-07-23T16:19:57;37.90;82.60
41168;DHT22;26906;45.658;9.272;2022-07-23T16:22:22;37.70;82.10
41168;DHT22;26906;45.658;9.272;2022-07-23T16:24:48;37.50;82.50
41168;DHT22;26906;45.658;9.272;2022-07-23T16:27:14;37.40;82.60
41168;DHT22;26906;45.658;9.272;2022-07-23T16:29:40;37.50;82.40
41168;DHT22;26906;45.658;9.272;2022-07-23T16:32:05;37.50;82.40
41168;DHT22;26906;45.658;9.272;2022-07-23T16:34:31;37.80;81.80
41168;DHT22;26906;45.658;9.272;2022-07-23T16:36:57;38.00;81.00
41168;DHT22;26906;45.658;9.272;2022-07-23T16:39:23;37.90;80.70
41168;DHT22;26906;45.658;9.272;2022-07-23T16:41:48;37.80;81.60
41168;DHT22;26906;45.658;9.272;2022-07-23T16:44:14;37.70;82.40
41168;DHT22;26906;45.658;9.272;2022-07-23T16:46:40;37.70;82.80
41168;DHT22;26906;45.658;9.272;2022-07-23T16:49:06;37.80;83.20
41168;DHT22;26906;45.658;9.272;2022-07-23T16:51:31;37.80;82.40
41168;DHT22;26906;45.658;9.272;2022-07-23T16:53:57;37.90;82.90
41168;DHT22;26906;45.658;9.272;2022-07-23T16:56:23;37.80;83.60
41168;DHT22;26906;45.658;9.272;2022-07-23T16:58:50;37.70;84.00
41168;DHT22;26906;45.658;9.272;2022-07-23T17:01:17;37.70;84.40
41168;DHT22;26906;45.658;9.272;2022-07-23T17:03:43;37.50;84.40
41168;DHT22;26906;45.658;9.272;2022-07-23T17:06:08;37.30;84.70
41168;DHT22;26906;45.658;9.272;2022-07-23T17:08:35;37.10;84.70
41168;DHT22;26906;45.658;9.272;2022-07-23T17:11:00;37.10;85.00
41168;DHT22;26906;45.658;9.272;2022-07-23T17:13:26;37.00;85.40
41168;DHT22;26906;45.658;9.272;2022-07-23T17:15:53;36.70;85.70
41168;DHT22;26906;45.658;9.272;2022-07-23T17:18:20;36.70;85.60
41168;DHT22;26906;45.658;9.272;2022-07-23T17:20:47;36.60;86.20
41168;DHT22;26906;45.658;9.272;2022-07-23T17:23:12;36.60;86.70
41168;DHT22;26906;45.658;9.272;2022-07-23T17:25:38;36.70;86.60
41168;DHT22;26906;45.658;9.272;2022-07-23T17:28:05;36.70;86.40
41168;DHT22;26906;45.658;9.272;2022-07-23T17:30:31;36.70;86.50
41168;DHT22;26906;45.658;9.272;2022-07-23T17:32:57;36.80;86.90
41168;DHT22;26906;45.658;9.272;2022-07-23T17:35:22;36.80;87.40
41168;DHT22;26906;45.658;9.272;2022-07-23T17:37:48;36.90;87.50
41168;DHT22;26906;45.658;9.272;2022-07-23T17:40:15;36.90;87.50
41168;DHT22;26906;45.658;9.272;2022-07-23T17:42:47;36.80;88.10
41168;DHT22;26906;45.658;9.272;2022-07-23T17:45:13;36.70;88.10
41168;DHT22;26906;45.658;9.272;2022-07-23T17:47:42;36.80;88.40
41168;DHT22;26906;45.658;9.272;2022-07-23T17:50:09;36.70;88.60
41168;DHT22;26906;45.658;9.272;2022-07-23T17:52:50;36.70;88.70
41168;DHT22;26906;45.658;9.272;2022-07-23T17:55:16;36.70;88.90
41168;DHT22;26906;45.658;9.272;2022-07-23T17:57:42;36.70;89.10
41168;DHT22;26906;45.658;9.272;2022-07-23T18:00:09;36.60;89.40
41168;DHT22;26906;45.658;9.272;2022-07-23T18:02:36;36.60;88.50
41168;DHT22;26906;45.658;9.272;2022-07-23T18:05:02;36.60;88.40
41168;DHT22;26906;45.658;9.272;2022-07-23T18:07:28;36.60;88.00
41168;DHT22;26906;45.658;9.272;2022-07-23T18:09:54;36.60;87.30
41168;DHT22;26906;45.658;9.272;2022-07-23T18:12:19;36.50;87.20
41168;DHT22;26906;45.658;9.272;2022-07-23T18:14:45;36.40;86.90
41168;DHT22;26906;45.658;9.272;2022-07-23T18:17:11;36.30;87.00
41168;DHT22;26906;45.658;9.272;2022-07-23T18:19:36;36.20;87.30
41168;DHT22;26906;45.658;9.272;2022-07-23T18:22:02;36.30;87.30
41168;DHT22;26906;45.658;9.272;2022-07-23T18:24:28;36.20;87.20
41168;DHT22;26906;45.658;9.272;2022-07-23T18:26:54;36.20;86.90
41168;DHT22;26906;45.658;9.272;2022-07-23T18:29:20;36.10;87.20
41168;DHT22;26906;45.658;9.272;2022-07-23T18:31:47;36.00;87.20
41168;DHT22;26906;45.658;9.272;2022-07-23T18:34:13;36.10;87.50
41168;DHT22;26906;45.658;9.272;2022-07-23T18:36:39;36.00;87.00
41168;DHT22;26906;45.658;9.272;2022-07-23T18:39:04;36.00;87.30
41168;DHT22;26906;45.658;9.272;2022-07-23T18:41:32;35.90;87.60
41168;DHT22;26906;45.658;9.272;2022-07-23T18:43:58;35.90;88.10
41168;DHT22;26906;45.658;9.272;2022-07-23T18:46:23;35.80;88.40
41168;DHT22;26906;45.658;9.272;2022-07-23T18:48:49;35.70;88.40
41168;DHT22;26906;45.658;9.272;2022-07-23T18:51:15;35.70;88.60
41168;DHT22;26906;45.658;9.272;2022-07-23T18:53:41;35.70;88.60
41168;DHT22;26906;45.658;9.272;2022-07-23T18:56:07;35.60;89.10
41168;DHT22;26906;45.658;9.272;2022-07-23T18:58:32;35.60;88.50
41168;DHT22;26906;45.658;9.272;2022-07-23T19:01:05;35.60;88.70
41168;DHT22;26906;45.658;9.272;2022-07-23T19:03:32;35.50;88.70
41168;DHT22;26906;45.658;9.272;2022-07-23T19:05:59;35.50;88.50
41168;DHT22;26906;45.658;9.272;2022-07-23T19:08:24;35.40;88.50
41168;DHT22;26906;45.658;9.272;2022-07-23T19:10:51;35.30;88.50
41168;DHT22;26906;45.658;9.272;2022-07-23T19:13:16;35.30;88.60
41168;DHT22;26906;45.658;9.272;2022-07-23T19:15:42;35.20;88.80
41168;DHT22;26906;45.658;9.272;2022-07-23T19:18:08;35.20;89.10
41168;DHT22;26906;45.658;9.272;2022-07-23T19:20:34;35.20;89.10
41168;DHT22;26906;45.658;9.272;2022-07-23T19:23:00;35.10;89.20
41168;DHT22;26906;45.658;9.272;2022-07-23T19:25:26;35.10;89.40
41168;DHT22;26906;45.658;9.272;2022-07-23T19:27:57;35.00;90.00
41168;DHT22;26906;45.658;9.272;2022-07-23T19:30:23;34.90;91.60
41168;DHT22;26906;45.658;9.272;2022-07-23T19:32:51;34.80;92.00
41168;DHT22;26906;45.658;9.272;2022-07-23T19:35:17;34.60;92.60
41168;DHT22;26906;45.658;9.272;2022-07-23T19:37:43;34.50;93.00
41168;DHT22;26906;45.658;9.272;2022-07-23T19:40:09;34.50;93.20
41168;DHT22;26906;45.658;9.272;2022-07-23T19:42:37;34.40;93.50
41168;DHT22;26906;45.658;9.272;2022-07-23T19:45:04;34.30;93.70
41168;DHT22;26906;45.658;9.272;2022-07-23T19:47:30;34.30;93.80
41168;DHT22;26906;45.658;9.272;2022-07-23T19:49:56;34.30;94.00
41168;DHT22;26906;45.658;9.272;2022-07-23T19:52:22;34.30;94.00
41168;DHT22;26906;45.658;9.272;2022-07-23T19:54:48;34.10;94.30
41168;DHT22;26906;45.658;9.272;2022-07-23T19:57:13;34.10;94.60
41168;DHT22;26906;45.658;9.272;2022-07-23T19:59:39;34.00;94.80
41168;DHT22;26906;45.658;9.272;2022-07-23T20:02:05;34.00;95.00
41168;DHT22;26906;45.658;9.272;2022-07-23T20:04:31;33.90;95.20
41168;DHT22;26906;45.658;9.272;2022-07-23T20:07:00;33.80;95.40
41168;DHT22;26906;45.658;9.272;2022-07-23T20:09:25;33.80;95.60
41168;DHT22;26906;45.658;9.272;2022-07-23T20:11:51;33.70;95.70
41168;DHT22;26906;45.658;9.272;2022-07-23T20:14:17;33.70;95.60
41168;DHT22;26906;45.658;9.272;2022-07-23T20:16:43;33.50;95.40
41168;DHT22;26906;45.658;9.272;2022-07-23T20:19:09;33.50;95.60
41168;DHT22;26906;45.658;9.272;2022-07-23T20:21:34;33.30;95.60
41168;DHT22;26906;45.658;9.272;2022-07-23T20:24:00;33.20;95.80
41168;DHT22;26906;45.658;9.272;2022-07-23T20:26:26;33.20;95.90
41168;DHT22;26906;45.658;9.272;2022-07-23T20:28:52;33.20;96.00
41168;DHT22;26906;45.658;9.272;2022-07-23T20:31:18;33.30;96.00
41168;DHT22;26906;45.658;9.272;2022-07-23T20:33:44;33.30;95.80
41168;DHT22;26906;45.658;9.272;2022-07-23T20:36:10;33.30;95.80
41168;DHT22;26906;45.658;9.272;2022-07-23T20:38:35;33.30;95.80
41168;DHT22;26906;45.658;9.272;2022-07-23T20:41:04;33.20;95.90
41168;DHT22;26906;45.658;9.272;2022-07-23T20:43:30;33.10;96.10
41168;DHT22;26906;45.658;9.272;2022-07-23T20:45:55;33.10;96.20
41168;DHT22;26906;45.658;9.272;2022-07-23T20:48:24;33.10;96.20
41168;DHT22;26906;45.658;9.272;2022-07-23T20:50:49;33.10;96.20
41168;DHT22;26906;45.658;9.272;2022-07-23T20:53:15;33.00;96.30
41168;DHT22;26906;45.658;9.272;2022-07-23T20:55:41;33.00;96.40